createdAt,value
2022-11-07T00:03:14.183Z,69.56
2022-11-07T00:08:19.863Z,69.71
2022-11-07T00:13:27.031Z,69.59
2022-11-07T00:18:32.942Z,69.60
2022-11-07T00:23:43.204Z,69.69
2022-11-07T00:28:48.850Z,69.74
2022-11-07T00:33:54.510Z,69.27
2022-11-07T00:39:00.318Z,69.59
2022-11-07T00:44:05.833Z,69.63
2022-11-07T00:49:11.791Z,69.56
2022-11-07T00:54:17.258Z,69.37
2022-11-07T00:59:22.786Z,69.38
2022-11-07T01:04:46.714Z,69.58
2022-11-07T01:09:52.316Z,69.41
2022-11-07T01:14:57.965Z,69.28
2022-11-07T01:20:03.413Z,69.32
2022-11-07T01:25:10.080Z,69.20
2022-11-07T01:30:15.523Z,69.51
2022-11-07T01:35:20.981Z,69.13
2022-11-07T01:40:26.443Z,69.42
2022-11-07T01:45:32.826Z,69.39
2022-11-07T01:50:38.338Z,69.19
2022-11-07T01:55:43.856Z,69.32
2022-11-07T02:00:49.451Z,69.42
2022-11-07T02:05:58.325Z,69.24
2022-11-07T02:11:04.914Z,69.29
2022-11-07T02:16:10.847Z,69.36
2022-11-07T02:21:34.526Z,68.96
2022-11-07T02:26:41.852Z,69.25
2022-11-07T02:31:47.295Z,69.19
2022-11-07T02:36:52.758Z,68.93
2022-11-07T02:42:00.553Z,69.07
2022-11-07T02:47:06.138Z,69.07
2022-11-07T02:52:11.726Z,68.73
2022-11-07T02:57:17.253Z,68.88
2022-11-07T03:02:23.017Z,68.67
2022-11-07T03:07:28.691Z,68.89
2022-11-07T03:12:34.217Z,68.49
2022-11-07T03:17:39.740Z,68.82
2022-11-07T03:22:45.618Z,68.62
2022-11-07T03:27:51.739Z,68.84
2022-11-07T03:32:57.737Z,68.56
2022-11-07T03:38:03.190Z,68.87
2022-11-07T03:43:08.636Z,68.86
2022-11-07T03:48:14.098Z,68.61
2022-11-07T03:53:25.043Z,68.71
2022-11-07T03:58:28.000Z,68.79
2022-11-07T04:03:34.401Z,68.65
2022-11-07T04:08:40.324Z,68.59
2022-11-07T04:14:03.961Z,68.63
2022-11-07T04:19:09.491Z,68.72
2022-11-07T04:24:14.938Z,68.62
2022-11-07T04:29:20.402Z,68.58
2022-11-07T04:34:25.785Z,68.83
2022-11-07T04:39:31.180Z,68.87
2022-11-07T04:44:36.981Z,68.61
2022-11-07T04:49:42.436Z,68.53
2022-11-07T04:54:48.019Z,68.77
2022-11-07T04:59:53.466Z,68.58
2022-11-07T05:04:58.861Z,68.52
2022-11-07T05:10:10.905Z,68.56
2022-11-07T05:15:12.798Z,69.06
2022-11-07T05:20:29.857Z,68.72
2022-11-07T05:25:35.304Z,68.62
2022-11-07T05:30:42.725Z,68.77
2022-11-07T05:35:48.442Z,68.76
2022-11-07T05:40:53.985Z,68.78
2022-11-07T05:46:02.946Z,69.40
2022-11-07T05:51:09.355Z,69.32
2022-11-07T05:56:14.819Z,68.84
2022-11-07T06:01:20.340Z,69.20
2022-11-07T06:06:25.758Z,69.15
2022-11-07T06:11:33.083Z,69.27
2022-11-07T06:16:38.610Z,69.12
2022-11-07T06:21:44.057Z,69.14
2022-11-07T06:26:49.444Z,68.99
2022-11-07T06:31:55.068Z,68.94
2022-11-07T06:37:03.303Z,69.04
2022-11-07T06:42:07.744Z,69.20
2022-11-07T06:47:13.269Z,69.85
2022-11-07T06:52:18.808Z,69.90
2022-11-07T06:57:24.325Z,70.15
2022-11-07T07:02:56.961Z,70.24
2022-11-07T07:07:36.992Z,70.39
2022-11-07T07:12:42.816Z,70.41
2022-11-07T07:17:48.273Z,70.34
2022-11-07T07:23:00.140Z,70.35
2022-11-07T07:28:00.946Z,70.26
2022-11-07T07:33:06.706Z,70.05
2022-11-07T07:38:14.604Z,70.22
2022-11-07T07:43:20.151Z,70.11
2022-11-07T07:48:25.645Z,69.84
2022-11-07T07:53:31.100Z,70.13
2022-11-07T07:58:36.938Z,69.79
2022-11-07T08:04:00.199Z,70.26
2022-11-07T08:08:49.548Z,69.72
2022-11-07T08:13:59.754Z,69.54
2022-11-07T08:19:02.151Z,69.28
2022-11-07T08:24:09.351Z,68.94
2022-11-07T08:29:14.804Z,68.72
2022-11-07T08:34:20.324Z,68.77
2022-11-07T08:39:25.802Z,68.79
2022-11-07T08:44:32.955Z,68.88
2022-11-07T08:49:38.482Z,68.34
2022-11-07T08:54:44.026Z,68.48
2022-11-07T08:59:49.540Z,67.92
2022-11-07T09:04:56.047Z,67.77
2022-11-07T09:10:01.430Z,67.86
2022-11-07T09:15:07.684Z,68.05
2022-11-07T09:20:15.429Z,67.64
2022-11-07T09:25:20.872Z,67.43
2022-11-07T09:30:26.250Z,66.72
2022-11-07T09:35:31.786Z,66.74
2022-11-07T09:40:46.027Z,66.52
2022-11-07T09:46:28.459Z,65.89
2022-11-07T09:51:40.187Z,65.13
2022-11-07T09:56:45.902Z,65.66
2022-11-07T10:01:51.562Z,65.50
2022-11-07T10:07:09.311Z,65.73
2022-11-07T10:12:44.159Z,65.67
2022-11-07T10:17:54.503Z,65.44
2022-11-07T10:23:09.370Z,65.39
2022-11-07T10:28:17.478Z,65.08
2022-11-07T10:33:28.530Z,64.61
2022-11-07T10:38:36.188Z,64.22
2022-11-07T10:43:43.195Z,64.04
2022-11-07T10:49:00.459Z,63.79
2022-11-07T10:54:11.065Z,65.03
2022-11-07T10:59:22.205Z,65.18
2022-11-07T11:04:30.801Z,64.47
2022-11-07T11:09:37.509Z,64.70
2022-11-07T11:14:43.139Z,63.72
2022-11-07T11:19:54.658Z,63.64
2022-11-07T11:25:06.101Z,63.80
2022-11-07T11:30:15.106Z,63.57
2022-11-07T11:35:52.228Z,64.16
2022-11-07T11:41:10.331Z,64.16
2022-11-07T11:46:34.243Z,64.06
2022-11-07T11:51:48.237Z,64.03
2022-11-07T11:57:13.382Z,65.05
2022-11-07T12:02:43.087Z,64.28
2022-11-07T12:08:11.396Z,64.12
2022-11-07T12:13:32.374Z,63.39
2022-11-07T12:18:46.305Z,63.18
2022-11-07T12:24:17.666Z,62.81
2022-11-07T12:29:41.262Z,62.53
2022-11-07T12:34:52.745Z,62.61
2022-11-07T12:40:01.188Z,62.05
2022-11-07T12:45:09.643Z,61.27
2022-11-07T12:50:18.149Z,61.61
2022-11-07T12:55:29.525Z,62.88
2022-11-07T13:00:36.919Z,62.68
2022-11-07T13:06:03.482Z,62.06
2022-11-07T13:11:40.026Z,62.23
2022-11-07T13:16:54.735Z,61.53
2022-11-07T13:22:03.005Z,61.76
2022-11-07T13:27:17.553Z,61.70
2022-11-07T13:32:23.150Z,61.56
2022-11-07T13:37:31.609Z,61.49
2022-11-07T13:42:37.660Z,61.33
2022-11-07T13:47:43.693Z,61.82
2022-11-07T13:52:58.013Z,61.71
2022-11-07T13:58:07.061Z,61.83
2022-11-07T14:03:29.548Z,61.90
2022-11-07T14:08:37.971Z,62.19
2022-11-07T14:13:43.772Z,62.41
2022-11-07T14:18:52.517Z,62.13
2022-11-07T14:23:58.886Z,62.34
2022-11-07T14:29:04.917Z,62.41
2022-11-07T14:34:19.160Z,62.58
2022-11-07T14:39:27.009Z,62.26
2022-11-07T14:44:55.184Z,62.50
2022-11-07T14:49:47.660Z,62.62
2022-11-07T14:54:56.200Z,62.69
2022-11-07T15:00:02.278Z,62.81
2022-11-07T15:05:11.293Z,62.98
2022-11-07T15:10:31.499Z,63.17
2022-11-07T15:15:38.248Z,63.12
2022-11-07T15:20:44.029Z,63.32
2022-11-07T15:25:59.827Z,63.50
2022-11-07T15:31:09.031Z,63.32
2022-11-07T15:36:15.876Z,63.52
2022-11-07T15:41:21.848Z,63.51
2022-11-07T15:46:30.375Z,63.77
2022-11-07T15:51:35.845Z,63.63
2022-11-07T15:56:42.377Z,63.97
2022-11-07T16:01:48.681Z,64.56
2022-11-07T16:06:54.715Z,64.70
2022-11-07T16:12:00.412Z,64.49
2022-11-07T16:17:06.044Z,64.21
2022-11-07T16:22:16.236Z,64.21
2022-11-07T16:27:21.779Z,62.48
2022-11-07T16:32:27.436Z,63.55
2022-11-07T16:37:33.210Z,63.75
2022-11-07T16:42:38.895Z,63.74
2022-11-07T16:47:45.217Z,64.02
2022-11-07T16:52:50.636Z,64.11
2022-11-07T16:57:56.677Z,64.04
2022-11-07T17:03:02.224Z,64.25
2022-11-07T17:08:13.940Z,64.30
2022-11-07T17:13:20.377Z,64.23
2022-11-07T17:18:27.972Z,64.51
2022-11-07T17:23:33.568Z,64.49
2022-11-07T17:28:39.086Z,64.57
2022-11-07T17:33:44.998Z,64.46
2022-11-07T17:38:51.471Z,64.43
2022-11-07T17:43:58.612Z,64.76
2022-11-07T17:49:10.020Z,64.85
2022-11-07T17:54:16.692Z,65.30
2022-11-07T17:59:22.921Z,65.51
2022-11-07T18:04:28.629Z,65.62
2022-11-07T18:09:34.462Z,65.85
2022-11-07T18:14:40.129Z,66.28
2022-11-07T18:19:45.758Z,66.14
2022-11-07T18:24:52.363Z,66.46
2022-11-07T18:29:57.851Z,66.55
2022-11-07T18:35:04.810Z,66.70
2022-11-07T18:40:11.829Z,66.66
2022-11-07T18:45:17.363Z,66.88
2022-11-07T18:50:23.027Z,67.00
2022-11-07T18:55:28.582Z,67.17
2022-11-07T19:00:34.661Z,67.17
2022-11-07T19:05:41.364Z,67.18
2022-11-07T19:10:46.966Z,67.27
2022-11-07T19:15:52.594Z,67.44
2022-11-07T19:20:58.250Z,67.19
2022-11-07T19:26:04.381Z,67.58
2022-11-07T19:31:13.036Z,67.59
2022-11-07T19:36:21.461Z,67.29
2022-11-07T19:41:26.920Z,67.48
2022-11-07T19:46:32.544Z,67.67
2022-11-07T19:51:38.160Z,67.38
2022-11-07T19:56:43.856Z,67.60
2022-11-07T20:02:10.480Z,67.60
2022-11-07T20:06:57.170Z,67.67
2022-11-07T20:12:02.700Z,67.69
2022-11-07T20:17:08.240Z,67.91
2022-11-07T20:22:13.941Z,68.10
2022-11-07T20:27:19.463Z,67.94
2022-11-07T20:32:25.035Z,68.31
2022-11-07T20:37:30.533Z,68.29
2022-11-07T20:42:36.742Z,68.42
2022-11-07T20:47:42.342Z,68.10
2022-11-07T20:52:47.960Z,67.93
2022-11-07T20:57:53.605Z,68.25
2022-11-07T21:02:59.361Z,68.36
2022-11-07T21:08:07.084Z,68.68
2022-11-07T21:13:14.616Z,69.04
2022-11-07T21:18:20.623Z,69.48
2022-11-07T21:23:27.049Z,69.59
2022-11-07T21:28:32.506Z,69.54
2022-11-07T21:33:38.925Z,69.64
2022-11-07T21:38:45.223Z,69.42
2022-11-07T21:43:51.156Z,69.68
2022-11-07T21:48:58.445Z,69.61
2022-11-07T21:54:05.011Z,69.96
2022-11-07T21:59:12.286Z,70.08
2022-11-07T22:04:18.052Z,70.20
2022-11-07T22:09:23.573Z,70.26
2022-11-07T22:14:28.971Z,69.25
2022-11-07T22:19:34.478Z,69.83
2022-11-07T22:24:40.232Z,70.24
2022-11-07T22:29:47.089Z,70.34
2022-11-07T22:34:52.544Z,70.64
2022-11-07T22:39:58.167Z,70.73
2022-11-07T22:45:03.693Z,70.95
2022-11-07T22:50:10.167Z,71.09
2022-11-07T22:55:15.701Z,71.07
2022-11-07T23:00:22.189Z,71.25
2022-11-07T23:05:28.033Z,71.41
2022-11-07T23:10:33.627Z,71.64
2022-11-07T23:15:39.073Z,71.58
2022-11-07T23:21:02.470Z,71.55
2022-11-07T23:26:13.711Z,71.87
2022-11-07T23:31:20.224Z,72.06
2022-11-07T23:36:26.061Z,72.19
2022-11-07T23:41:31.521Z,72.33
2022-11-07T23:46:55.406Z,72.49
2022-11-07T23:52:00.962Z,72.46
2022-11-07T23:57:06.488Z,72.54
